createdAt,value
2018-01-15T00:00:58.528Z,9.80
2018-01-15T00:03:26.548Z,9.50
2018-01-15T00:05:54.570Z,10.52
2018-01-15T00:08:22.580Z,10.63
2018-01-15T00:10:50.573Z,11.23
2018-01-15T00:13:18.628Z,10.77
2018-01-15T00:15:47.557Z,9.50
2018-01-15T00:18:15.590Z,10.32
2018-01-15T00:20:43.637Z,10.50
2018-01-15T00:23:11.713Z,9.40
2018-01-15T00:25:39.819Z,9.15
2018-01-15T00:28:07.787Z,11.00
2018-01-15T00:30:35.861Z,9.85
2018-01-15T00:33:03.880Z,9.80
2018-01-15T00:35:31.879Z,9.20
2018-01-15T00:37:59.897Z,9.85
2018-01-15T00:40:28.011Z,10.20
2018-01-15T00:42:56.057Z,10.70
2018-01-15T00:45:24.107Z,9.88
2018-01-15T00:47:52.094Z,9.63
2018-01-15T00:50:20.098Z,9.20
2018-01-15T00:52:48.117Z,10.57
2018-01-15T00:55:16.130Z,8.88
2018-01-15T00:57:44.137Z,8.63
2018-01-15T01:00:12.196Z,10.45
2018-01-15T01:02:40.217Z,9.45
2018-01-15T01:05:08.253Z,8.75
2018-01-15T01:07:37.294Z,10.23
2018-01-15T01:10:05.263Z,10.35
2018-01-15T01:12:33.281Z,10.73
2018-01-15T01:15:01.293Z,10.20
2018-01-15T01:17:29.310Z,10.35
2018-01-15T01:19:57.329Z,9.25
2018-01-15T01:22:25.335Z,8.57
2018-01-15T01:24:53.368Z,9.20
2018-01-15T01:27:21.391Z,8.77
2018-01-15T01:29:50.492Z,9.57
2018-01-15T01:32:18.561Z,9.13
2018-01-15T01:34:46.556Z,8.25
2018-01-15T01:37:14.613Z,9.18
2018-01-15T01:39:42.587Z,9.30
2018-01-15T01:42:10.645Z,9.82
2018-01-15T01:44:38.646Z,10.52
2018-01-15T01:47:06.625Z,9.70
2018-01-15T01:49:34.661Z,9.93
2018-01-15T01:52:02.695Z,9.25
2018-01-15T01:54:30.712Z,10.45
2018-01-15T01:56:58.769Z,10.48
2018-01-15T01:59:26.792Z,10.60
2018-01-15T02:01:54.839Z,9.43
2018-01-15T02:04:22.839Z,8.45
2018-01-15T02:06:50.853Z,8.95
2018-01-15T02:09:18.866Z,8.57
2018-01-15T02:11:46.888Z,9.85
2018-01-15T02:14:14.931Z,8.70
2018-01-15T02:16:42.955Z,8.57
2018-01-15T02:19:10.956Z,9.20
2018-01-15T02:21:38.981Z,9.68
2018-01-15T02:24:07.001Z,8.48
2018-01-15T02:26:35.058Z,8.63
2018-01-15T02:29:03.093Z,10.60
2018-01-15T02:31:31.103Z,9.68
2018-01-15T02:33:59.131Z,9.35
2018-01-15T02:36:27.172Z,9.25
2018-01-15T02:38:55.201Z,8.90
2018-01-15T02:41:24.287Z,8.68
2018-01-15T02:43:52.308Z,10.60
2018-01-15T02:46:20.351Z,9.75
2018-01-15T02:48:48.352Z,9.65
2018-01-15T02:51:16.367Z,9.60
2018-01-15T02:53:44.363Z,8.93
2018-01-15T02:56:12.344Z,9.40
2018-01-15T02:58:40.337Z,9.43
2018-01-15T03:01:08.370Z,8.85
2018-01-15T03:03:36.425Z,10.25
2018-01-15T03:06:04.414Z,9.32
2018-01-15T03:08:32.508Z,9.40
2018-01-15T03:11:00.542Z,8.88
2018-01-15T03:13:28.559Z,9.55
2018-01-15T03:15:56.560Z,10.23
2018-01-15T03:18:24.606Z,9.27
2018-01-15T03:20:52.599Z,10.65
2018-01-15T03:23:24.555Z,9.43
2018-01-15T03:25:52.565Z,9.25
2018-01-15T03:28:20.619Z,9.43
2018-01-15T03:30:48.622Z,8.23
2018-01-15T03:33:16.625Z,9.50
2018-01-15T03:35:44.649Z,9.82
2018-01-15T03:38:12.672Z,9.32
2018-01-15T03:40:40.654Z,8.75
2018-01-15T03:43:08.682Z,9.55
2018-01-15T03:45:36.681Z,10.32
2018-01-15T03:48:04.681Z,9.82
2018-01-15T03:50:32.752Z,10.30
2018-01-15T03:53:00.759Z,10.00
2018-01-15T03:55:28.788Z,9.75
2018-01-15T03:57:56.793Z,9.50
2018-01-15T04:00:24.778Z,10.02
2018-01-15T04:02:52.832Z,9.88
2018-01-15T04:05:20.856Z,9.57
2018-01-15T04:07:48.866Z,9.50
2018-01-15T04:10:16.860Z,8.40
2018-01-15T04:12:44.900Z,7.95
2018-01-15T04:15:12.863Z,9.35
2018-01-15T04:17:40.865Z,10.70
2018-01-15T04:20:08.915Z,9.55
2018-01-15T04:22:36.941Z,10.32
2018-01-15T04:25:04.943Z,9.40
2018-01-15T04:27:32.980Z,9.55
2018-01-15T04:30:00.976Z,9.63
2018-01-15T04:32:28.995Z,10.88
2018-01-15T04:34:57.065Z,10.68
2018-01-15T04:37:25.069Z,11.57
2018-01-15T04:39:53.091Z,12.20
2018-01-15T04:42:21.146Z,11.00
2018-01-15T04:44:49.126Z,11.38
2018-01-15T04:47:17.214Z,12.70
2018-01-15T04:49:45.247Z,10.73
2018-01-15T04:52:13.269Z,11.35
2018-01-15T04:54:41.305Z,11.18
2018-01-15T04:57:09.335Z,10.85
2018-01-15T04:59:37.346Z,12.13
2018-01-15T05:02:05.347Z,10.77
2018-01-15T05:04:33.335Z,11.80
2018-01-15T05:07:01.344Z,13.02
2018-01-15T05:09:29.385Z,11.50
2018-01-15T05:11:57.383Z,13.00
2018-01-15T05:14:25.407Z,12.25
2018-01-15T05:16:53.377Z,11.38
2018-01-15T05:19:21.373Z,13.25
2018-01-15T05:21:49.419Z,10.55
2018-01-15T05:24:17.405Z,13.35
2018-01-15T05:26:45.449Z,11.60
2018-01-15T05:29:13.489Z,13.18
2018-01-15T05:31:41.476Z,11.20
2018-01-15T05:34:09.512Z,12.13
2018-01-15T05:36:37.529Z,12.10
2018-01-15T05:39:05.558Z,11.70
2018-01-15T05:41:33.543Z,13.38
2018-01-15T05:44:01.539Z,13.32
2018-01-15T05:46:29.517Z,10.52
2018-01-15T05:48:57.519Z,12.30
2018-01-15T05:51:25.515Z,11.23
2018-01-15T05:53:53.509Z,13.55
2018-01-15T05:56:21.530Z,13.10
2018-01-15T05:58:49.541Z,12.02
2018-01-15T06:01:17.609Z,12.60
2018-01-15T06:03:45.631Z,11.80
2018-01-15T06:06:13.643Z,11.90
2018-01-15T06:08:41.631Z,12.48
2018-01-15T06:11:09.703Z,13.43
2018-01-15T06:13:37.750Z,14.40
2018-01-15T06:16:05.819Z,12.15
2018-01-15T06:18:33.821Z,14.23
2018-01-15T06:21:01.842Z,13.98
2018-01-15T06:23:29.847Z,13.18
2018-01-15T06:25:57.859Z,13.18
2018-01-15T06:28:25.872Z,14.43
2018-01-15T06:30:53.868Z,14.10
2018-01-15T06:33:21.870Z,14.77
2018-01-15T06:35:49.922Z,13.82
2018-01-15T06:38:17.965Z,15.35
2018-01-15T06:40:46.047Z,12.77
2018-01-15T06:43:14.026Z,14.27
2018-01-15T06:45:42.086Z,15.63
2018-01-15T06:48:10.101Z,14.00
2018-01-15T06:50:38.119Z,12.65
2018-01-15T06:53:06.092Z,12.70
2018-01-15T06:55:34.146Z,13.02
2018-01-15T06:58:02.124Z,14.98
2018-01-15T07:00:30.145Z,17.10
2018-01-15T07:02:58.186Z,13.73
2018-01-15T07:05:26.149Z,13.38
2018-01-15T07:07:54.164Z,14.63
2018-01-15T07:10:22.195Z,13.68
2018-01-15T07:12:50.207Z,14.02
2018-01-15T07:15:18.223Z,12.98
2018-01-15T07:17:46.229Z,14.48
2018-01-15T07:20:14.251Z,13.05
2018-01-15T07:22:42.235Z,12.77
2018-01-15T07:25:10.288Z,14.02
2018-01-15T07:27:38.308Z,12.13
2018-01-15T07:30:06.341Z,14.38
2018-01-15T07:32:34.335Z,11.70
2018-01-15T07:35:02.353Z,13.60
2018-01-15T07:37:30.378Z,12.63
2018-01-15T07:39:58.430Z,13.30
2018-01-15T07:42:26.442Z,13.70
2018-01-15T07:44:54.451Z,13.25
2018-01-15T07:47:22.489Z,14.20
2018-01-15T07:49:50.491Z,14.57
2018-01-15T07:52:18.509Z,13.07
2018-01-15T07:54:46.641Z,13.60
2018-01-15T07:57:14.654Z,16.50
2018-01-15T07:59:42.695Z,13.15
2018-01-15T08:02:10.688Z,15.05
2018-01-15T08:04:38.718Z,15.05
2018-01-15T08:07:06.746Z,16.67
2018-01-15T08:09:34.749Z,13.27
2018-01-15T08:12:02.751Z,16.30
2018-01-15T08:14:30.765Z,15.18
2018-01-15T08:16:58.796Z,14.25
2018-01-15T08:19:26.830Z,15.35
2018-01-15T08:21:54.921Z,14.30
2018-01-15T08:24:22.969Z,15.30
2018-01-15T08:26:50.973Z,15.77
2018-01-15T08:29:18.979Z,17.25
2018-01-15T08:31:46.980Z,13.55
2018-01-15T08:34:14.975Z,16.37
2018-01-15T08:36:43.013Z,14.20
2018-01-15T08:39:11.021Z,15.13
2018-01-15T08:41:39.080Z,13.98
2018-01-15T08:44:07.143Z,16.85
2018-01-15T08:46:35.159Z,14.25
2018-01-15T08:49:03.203Z,14.77
2018-01-15T08:51:31.197Z,14.02
2018-01-15T08:53:59.221Z,16.05
2018-01-15T08:56:27.215Z,13.50
2018-01-15T08:58:55.215Z,16.45
2018-01-15T09:01:23.235Z,14.75
2018-01-15T09:03:51.245Z,16.77
2018-01-15T09:06:19.289Z,17.02
2018-01-15T09:08:47.317Z,16.20
2018-01-15T09:11:15.331Z,15.57
2018-01-15T09:13:43.296Z,14.20
2018-01-15T09:16:11.323Z,17.35
2018-01-15T09:18:39.295Z,16.67
2018-01-15T09:21:07.289Z,16.23
2018-01-15T09:23:35.304Z,15.77
2018-01-15T09:26:03.328Z,17.83
2018-01-15T09:28:31.323Z,15.40
2018-01-15T09:30:59.336Z,15.43
2018-01-15T09:33:27.373Z,16.15
2018-01-15T09:35:55.383Z,18.12
2018-01-15T09:38:23.414Z,16.33
2018-01-15T09:40:51.409Z,15.15
2018-01-15T09:43:19.431Z,17.20
2018-01-15T09:45:47.477Z,15.55
2018-01-15T09:48:15.493Z,18.90
2018-01-15T09:50:43.559Z,17.17
2018-01-15T09:53:11.601Z,16.98
2018-01-15T09:55:39.607Z,15.98
2018-01-15T09:58:07.636Z,17.30
2018-01-15T10:00:35.653Z,16.87
2018-01-15T10:03:03.677Z,17.08
2018-01-15T10:05:31.682Z,15.35
2018-01-15T10:07:59.730Z,17.85
2018-01-15T10:10:27.715Z,17.02
2018-01-15T10:12:55.745Z,16.48
2018-01-15T10:15:23.940Z,15.93
2018-01-15T10:17:51.935Z,16.80
2018-01-15T10:20:19.926Z,18.73
2018-01-15T10:22:47.934Z,16.92
2018-01-15T10:25:15.944Z,15.15
2018-01-15T10:27:43.951Z,19.45
2018-01-15T10:30:11.967Z,19.58
2018-01-15T10:32:40.038Z,16.65
2018-01-15T10:35:08.063Z,17.40
2018-01-15T10:37:36.139Z,16.45
2018-01-15T10:40:04.188Z,16.73
2018-01-15T10:42:32.217Z,18.62
2018-01-15T10:45:00.249Z,17.17
2018-01-15T10:47:28.301Z,18.15
2018-01-15T10:49:56.359Z,16.50
2018-01-15T10:52:24.405Z,17.00
2018-01-15T10:54:52.393Z,18.92
2018-01-15T10:57:20.376Z,16.95
2018-01-15T10:59:48.393Z,16.75
2018-01-15T11:02:16.413Z,17.37
2018-01-15T11:04:44.417Z,15.98
2018-01-15T11:07:12.457Z,15.05
2018-01-15T11:09:40.494Z,19.92
2018-01-15T11:12:08.538Z,17.77
2018-01-15T11:14:36.569Z,17.37
2018-01-15T11:17:04.545Z,18.10
2018-01-15T11:19:32.548Z,17.17
2018-01-15T11:22:00.560Z,17.50
2018-01-15T11:24:28.600Z,18.50
2018-01-15T11:26:56.591Z,16.75
2018-01-15T11:29:24.596Z,18.17
2018-01-15T11:31:52.629Z,19.10
2018-01-15T11:34:20.665Z,17.25
2018-01-15T11:36:48.652Z,17.20
2018-01-15T11:39:16.645Z,17.77
2018-01-15T11:41:44.651Z,17.12
2018-01-15T11:44:12.665Z,18.65
2018-01-15T11:46:40.679Z,16.55
2018-01-15T11:49:08.692Z,15.80
2018-01-15T11:51:36.729Z,15.50
2018-01-15T11:54:04.746Z,16.08
2018-01-15T11:56:32.741Z,15.18
2018-01-15T11:59:00.731Z,19.55
2018-01-15T12:01:28.741Z,15.88
2018-01-15T12:03:56.769Z,16.73
2018-01-15T12:06:24.827Z,18.60
2018-01-15T12:08:52.842Z,15.95
2018-01-15T12:11:20.825Z,18.00
2018-01-15T12:13:48.817Z,16.42
2018-01-15T12:16:16.798Z,18.98
2018-01-15T12:18:44.801Z,17.00
2018-01-15T12:21:12.832Z,16.12
2018-01-15T12:23:40.884Z,17.17
2018-01-15T12:26:08.942Z,18.48
2018-01-15T12:28:36.945Z,17.85
2018-01-15T12:31:05.052Z,17.45
2018-01-15T12:33:33.024Z,17.52
2018-01-15T12:36:01.003Z,18.87
2018-01-15T12:38:29.042Z,18.60
2018-01-15T12:40:57.037Z,17.90
2018-01-15T12:43:25.055Z,16.20
2018-01-15T12:45:53.049Z,18.08
2018-01-15T12:48:21.085Z,17.25
2018-01-15T12:50:49.093Z,18.83
2018-01-15T12:53:17.133Z,16.23
2018-01-15T12:55:45.194Z,17.70
2018-01-15T12:58:13.229Z,17.05
2018-01-15T13:00:41.240Z,17.20
2018-01-15T13:03:09.225Z,15.20
2018-01-15T13:05:43.441Z,15.73
2018-01-15T13:08:11.475Z,16.98
2018-01-15T13:10:39.524Z,16.60
2018-01-15T13:13:07.500Z,16.60
2018-01-15T13:15:35.573Z,17.00
2018-01-15T13:18:03.601Z,16.65
2018-01-15T13:20:31.629Z,17.27
2018-01-15T13:22:59.683Z,15.88
2018-01-15T13:25:27.741Z,17.70
2018-01-15T13:27:55.748Z,16.98
2018-01-15T13:30:23.814Z,17.80
2018-01-15T13:32:51.847Z,15.45
2018-01-15T13:35:19.866Z,15.77
2018-01-15T13:37:47.904Z,17.55
2018-01-15T13:40:15.892Z,16.48
2018-01-15T13:42:43.906Z,17.30
2018-01-15T13:45:11.904Z,17.40
2018-01-15T13:47:39.885Z,19.35
2018-01-15T13:50:07.937Z,16.77
2018-01-15T13:52:36.013Z,16.75
2018-01-15T13:55:04.013Z,17.60
2018-01-15T13:57:32.002Z,18.35
2018-01-15T14:00:00.003Z,17.27
2018-01-15T14:02:28.009Z,16.75
2018-01-15T14:04:56.046Z,14.13
2018-01-15T14:07:24.047Z,15.43
2018-01-15T14:09:52.063Z,15.73
2018-01-15T14:12:20.122Z,15.93
2018-01-15T14:14:48.119Z,15.68
2018-01-15T14:17:16.142Z,15.50
2018-01-15T14:19:44.148Z,14.75
2018-01-15T14:22:12.140Z,13.98
2018-01-15T14:24:40.143Z,14.70
2018-01-15T14:27:08.197Z,15.15
2018-01-15T14:29:36.215Z,15.40
2018-01-15T14:32:04.220Z,13.82
2018-01-15T14:34:32.256Z,13.18
2018-01-15T14:37:00.253Z,12.23
2018-01-15T14:39:28.240Z,14.23
2018-01-15T14:41:56.266Z,13.90
2018-01-15T14:44:24.305Z,13.50
2018-01-15T14:46:52.339Z,13.95
2018-01-15T14:49:20.425Z,13.45
2018-01-15T14:51:48.414Z,13.62
2018-01-15T14:54:16.421Z,11.93
2018-01-15T14:56:44.433Z,13.50
2018-01-15T14:59:12.485Z,13.05
2018-01-15T15:01:40.475Z,13.98
2018-01-15T15:04:08.503Z,11.77
2018-01-15T15:06:36.521Z,12.70
2018-01-15T15:09:04.545Z,12.00
2018-01-15T15:11:32.551Z,12.73
2018-01-15T15:14:00.559Z,12.48
2018-01-15T15:16:28.560Z,12.40
2018-01-15T15:18:56.572Z,12.55
2018-01-15T15:21:24.599Z,12.45
2018-01-15T15:23:53.069Z,12.40
2018-01-15T15:26:21.066Z,12.25
2018-01-15T15:28:49.097Z,13.43
2018-01-15T15:31:17.101Z,12.70
2018-01-15T15:33:45.108Z,12.65
2018-01-15T15:36:14.233Z,12.73
2018-01-15T15:38:42.267Z,13.13
2018-01-15T15:41:10.281Z,12.80
2018-01-15T15:43:38.289Z,13.60
2018-01-15T15:46:06.328Z,12.23
2018-01-15T15:48:34.351Z,14.38
2018-01-15T15:51:02.357Z,13.57
2018-01-15T15:53:30.425Z,13.32
2018-01-15T15:55:58.476Z,17.23
2018-01-15T15:58:26.488Z,14.32
2018-01-15T16:00:54.470Z,15.73
2018-01-15T16:03:22.537Z,17.95
2018-01-15T16:05:50.551Z,17.00
2018-01-15T16:08:18.532Z,16.40
2018-01-15T16:10:46.571Z,17.17
2018-01-15T16:13:14.574Z,16.60
2018-01-15T16:15:42.573Z,15.45
2018-01-15T16:18:11.624Z,13.70
2018-01-15T16:20:39.653Z,13.13
2018-01-15T16:23:07.704Z,15.48
2018-01-15T16:25:35.738Z,13.93
2018-01-15T16:28:03.764Z,14.35
2018-01-15T16:30:31.747Z,13.70
2018-01-15T16:32:59.742Z,13.05
2018-01-15T16:35:27.809Z,14.50
2018-01-15T16:37:55.823Z,13.15
2018-01-15T16:40:23.901Z,13.73
2018-01-15T16:42:51.917Z,14.90
2018-01-15T16:45:21.007Z,13.93
2018-01-15T16:47:49.015Z,14.82
2018-01-15T16:50:23.266Z,12.75
2018-01-15T16:52:51.308Z,12.37
2018-01-15T16:55:19.326Z,13.73
2018-01-15T16:57:47.348Z,11.43
2018-01-15T17:00:15.361Z,11.52
2018-01-15T17:02:43.405Z,13.07
2018-01-15T17:05:11.379Z,11.93
2018-01-15T17:07:39.396Z,13.07
2018-01-15T17:10:08.546Z,13.20
2018-01-15T17:12:36.577Z,14.93
2018-01-15T17:15:04.613Z,10.98
2018-01-15T17:17:32.633Z,12.07
2018-01-15T17:20:00.631Z,13.00
2018-01-15T17:22:28.670Z,11.73
2018-01-15T17:24:56.661Z,11.10
2018-01-15T17:27:24.655Z,11.38
2018-01-15T17:29:52.660Z,12.27
2018-01-15T17:32:20.681Z,11.38
2018-01-15T17:34:48.712Z,12.77
2018-01-15T17:37:16.715Z,12.37
2018-01-15T17:39:44.755Z,12.15
2018-01-15T17:42:12.797Z,10.95
2018-01-15T17:44:40.824Z,11.43
2018-01-15T17:47:08.805Z,13.90
2018-01-15T17:49:36.818Z,14.10
2018-01-15T17:52:04.867Z,12.93
2018-01-15T17:54:33.969Z,10.75
2018-01-15T17:57:01.956Z,12.52
2018-01-15T17:59:30.027Z,12.77
2018-01-15T18:01:58.058Z,11.48
2018-01-15T18:04:27.035Z,10.88
2018-01-15T18:06:55.088Z,11.27
2018-01-15T18:09:23.120Z,11.95
2018-01-15T18:11:51.103Z,11.73
2018-01-15T18:14:19.099Z,11.57
2018-01-15T18:16:47.133Z,12.88
2018-01-15T18:19:15.437Z,13.95
2018-01-15T18:21:43.502Z,12.75
2018-01-15T18:24:11.490Z,14.02
2018-01-15T18:26:39.497Z,12.05
2018-01-15T18:29:07.482Z,12.23
2018-01-15T18:31:35.496Z,12.95
2018-01-15T18:34:03.528Z,11.18
2018-01-15T18:36:31.535Z,13.48
2018-01-15T18:38:59.499Z,12.25
2018-01-15T18:41:27.558Z,12.50
2018-01-15T18:43:55.553Z,12.82
2018-01-15T18:46:23.524Z,12.55
2018-01-15T18:48:51.626Z,11.38
2018-01-15T18:51:19.643Z,11.48
2018-01-15T18:53:48.021Z,12.02
2018-01-15T18:56:16.062Z,12.00
2018-01-15T18:58:46.073Z,12.90
2018-01-15T19:01:14.047Z,12.10
2018-01-15T19:03:42.055Z,12.37
2018-01-15T19:06:10.080Z,12.00
2018-01-15T19:08:38.111Z,12.85
2018-01-15T19:11:06.156Z,13.75
2018-01-15T19:13:34.165Z,12.98
2018-01-15T19:16:02.141Z,15.05
2018-01-15T19:18:30.139Z,13.48
2018-01-15T19:21:00.228Z,13.80
2018-01-15T19:23:28.341Z,12.50
2018-01-15T19:25:56.390Z,11.63
2018-01-15T19:28:24.450Z,11.18
2018-01-15T19:30:52.497Z,11.88
2018-01-15T19:33:20.545Z,11.77
2018-01-15T19:35:48.595Z,11.50
2018-01-15T19:38:16.613Z,10.98
2018-01-15T19:40:44.698Z,11.23
2018-01-15T19:43:17.735Z,13.15
2018-01-15T19:45:51.871Z,11.02
2018-01-15T19:48:26.036Z,11.90
2018-01-15T19:51:00.231Z,10.40
2018-01-15T19:53:34.380Z,10.73
2018-01-15T19:56:08.525Z,9.07
2018-01-15T19:58:42.652Z,9.55
2018-01-15T20:01:18.931Z,10.02
2018-01-15T20:03:55.110Z,8.85
2018-01-15T20:06:29.251Z,9.75
2018-01-15T20:09:03.428Z,9.48
2018-01-15T20:11:31.444Z,9.52
2018-01-15T20:13:59.501Z,8.88
2018-01-15T20:16:27.542Z,7.78
2018-01-15T20:18:55.578Z,7.85
2018-01-15T20:21:23.630Z,8.10
2018-01-15T20:23:51.674Z,9.23
2018-01-15T20:26:19.683Z,7.57
2018-01-15T20:28:47.722Z,7.43
2018-01-15T20:31:15.752Z,7.28
2018-01-15T20:33:43.760Z,8.32
2018-01-15T20:36:11.818Z,8.35
2018-01-15T20:38:39.819Z,7.80
2018-01-15T20:41:11.480Z,7.15
2018-01-15T20:43:39.533Z,5.55
2018-01-15T20:46:07.516Z,6.32
2018-01-15T20:48:35.654Z,5.43
2018-01-15T20:51:03.989Z,4.40
2018-01-15T20:53:32.006Z,3.45
2018-01-15T20:56:00.029Z,3.60
2018-01-15T20:58:28.046Z,2.20
2018-01-15T21:00:56.078Z,1.60
2018-01-15T21:03:24.102Z,1.65
2018-01-15T21:05:52.125Z,1.35
2018-01-15T21:08:20.129Z,1.25
2018-01-15T21:10:50.242Z,1.15
2018-01-15T21:13:18.613Z,1.30
2018-01-15T21:15:46.658Z,1.20
2018-01-15T21:18:14.667Z,1.02
2018-01-15T21:20:42.705Z,1.12
2018-01-15T21:23:10.711Z,0.88
2018-01-15T21:25:38.697Z,1.30
2018-01-15T21:28:06.749Z,1.37
2018-01-15T21:30:34.777Z,1.02
2018-01-15T21:33:03.869Z,0.68
2018-01-15T21:35:31.875Z,1.12
2018-01-15T21:37:59.932Z,1.10
2018-01-15T21:40:27.911Z,1.08
2018-01-15T21:42:55.903Z,1.00
2018-01-15T21:45:23.953Z,1.10
2018-01-15T21:47:51.936Z,0.85
2018-01-15T21:50:19.956Z,1.00
2018-01-15T21:52:47.951Z,1.10
2018-01-15T21:55:15.933Z,1.20
2018-01-15T21:57:43.983Z,1.00
2018-01-15T22:00:11.993Z,1.05
2018-01-15T22:02:41.117Z,1.10
2018-01-15T22:05:09.119Z,1.10
2018-01-15T22:07:37.214Z,1.40
2018-01-15T22:10:05.226Z,1.12
2018-01-15T22:12:33.232Z,1.20
2018-01-15T22:15:02.323Z,1.40
2018-01-15T22:17:30.311Z,1.35
2018-01-15T22:19:58.331Z,1.17
2018-01-15T22:22:26.378Z,0.90
2018-01-15T22:24:54.428Z,0.90
2018-01-15T22:27:22.501Z,1.25
2018-01-15T22:29:50.537Z,1.00
2018-01-15T22:32:18.557Z,1.10
2018-01-15T22:34:46.648Z,1.00
2018-01-15T22:37:14.649Z,1.02
2018-01-15T22:39:42.653Z,1.05
2018-01-15T22:42:10.652Z,0.80
2018-01-15T22:44:38.705Z,1.00
2018-01-15T22:47:06.719Z,0.90
2018-01-15T22:49:34.759Z,1.08
2018-01-15T22:52:02.797Z,0.80
2018-01-15T22:54:30.807Z,0.95
2018-01-15T22:56:58.955Z,0.80
2018-01-15T22:59:26.955Z,0.88
2018-01-15T23:01:54.975Z,1.10
2018-01-15T23:04:22.989Z,1.25
2018-01-15T23:06:51.031Z,0.80
2018-01-15T23:09:19.087Z,0.82
2018-01-15T23:11:47.123Z,0.85
2018-01-15T23:14:15.187Z,1.15
2018-01-15T23:16:43.314Z,0.80
2018-01-15T23:19:11.453Z,0.80
2018-01-15T23:21:39.581Z,0.80
2018-01-15T23:24:07.621Z,1.10
2018-01-15T23:26:35.647Z,0.75
2018-01-15T23:29:03.628Z,0.85
2018-01-15T23:31:31.693Z,0.75
2018-01-15T23:34:00.729Z,0.68
2018-01-15T23:36:28.735Z,1.00
2018-01-15T23:38:56.772Z,0.50
2018-01-15T23:41:24.801Z,0.40
2018-01-15T23:43:52.843Z,0.50
2018-01-15T23:46:20.982Z,0.43
2018-01-15T23:48:49.044Z,0.50
2018-01-15T23:51:17.043Z,0.57
2018-01-15T23:53:45.078Z,0.60
2018-01-15T23:56:13.091Z,0.40
2018-01-15T23:58:41.139Z,0.43
